Time;durP1;ratioP1;P1;durP2;ratioP2;P2;SDS_P1;SDS_P2;PMS_P1;PMS_P2;Temp;Humidity;BMP_temperature;BMP_pressure;BME280_temperature;BME280_humidity;BME280_pressure;Samples;Min_cycle;Max_cycle;Signal;HPM_P1;HPM_P2
2023/07/31 00:01:33;;;;;;;6.10;3.57;;;;;;;;;;740303;190;760759;-58
2023/07/31 00:03:59;;;;;;;4.10;3.30;;;;;;;;;;738420;190;827265;-58
2023/07/31 00:06:25;;;;;;;5.97;2.97;;;;;;;;;;742422;190;873318;-58
2023/07/31 00:08:51;;;;;;;4.93;3.77;;;;;;;;;;738364;190;816643;-65
2023/07/31 00:11:17;;;;;;;5.83;3.03;;;;;;;;;;738082;190;862872;-65
2023/07/31 00:13:42;;;;;;;3.90;2.75;;;;;;;;;;741807;190;918639;-65
2023/07/31 00:16:08;;;;;;;7.43;3.87;;;;;;;;;;738076;190;919517;-66
2023/07/31 00:18:34;;;;;;;4.80;3.20;;;;;;;;;;732087;190;918465;-65
2023/07/31 00:21:00;;;;;;;3.77;2.63;;;;;;;;;;742218;190;917943;-64
2023/07/31 00:23:26;;;;;;;4.10;3.07;;;;;;;;;;736342;190;920531;-65
2023/07/31 00:25:52;;;;;;;3.80;2.70;;;;;;;;;;736956;190;907524;-57
2023/07/31 00:28:18;;;;;;;5.17;2.70;;;;;;;;;;735315;190;715285;-58
2023/07/31 00:30:43;;;;;;;5.47;3.07;;;;;;;;;;738245;190;918316;-58
2023/07/31 00:33:09;;;;;;;5.10;3.10;;;;;;;;;;737143;190;918223;-58
2023/07/31 00:35:35;;;;;;;7.67;3.60;;;;;;;;;;740846;188;922618;-58
2023/07/31 00:38:01;;;;;;;5.00;3.10;;;;;;;;;;744377;190;918435;-58
2023/07/31 00:40:27;;;;;;;7.40;2.70;;;;;;;;;;738948;190;919875;-58
2023/07/31 00:42:53;;;;;;;5.07;2.73;;;;;;;;;;737455;190;924110;-64
2023/07/31 00:45:18;;;;;;;6.13;3.30;;;;;;;;;;742875;190;915197;-57
2023/07/31 00:47:44;;;;;;;5.70;3.23;;;;;;;;;;738480;190;919014;-64
2023/07/31 00:50:10;;;;;;;5.10;3.13;;;;;;;;;;739358;190;919018;-64
2023/07/31 00:52:37;;;;;;;4.37;3.37;;;;;;;;;;738034;190;919786;-64
2023/07/31 00:55:02;;;;;;;4.03;2.83;;;;;;;;;;737842;190;928080;-64
2023/07/31 00:57:28;;;;;;;6.73;2.70;;;;;;;;;;738136;190;918748;-62
2023/07/31 00:59:54;;;;;;;8.70;3.30;;;;;;;;;;736606;190;926933;-58
2023/07/31 01:02:19;;;;;;;4.60;3.10;;;;;;;;;;742553;190;919059;-59
2023/07/31 01:04:45;;;;;;;5.63;2.80;;;;;;;;;;738508;190;914596;-58
2023/07/31 01:07:11;;;;;;;7.70;2.60;;;;;;;;;;738818;190;915553;-58
2023/07/31 01:09:37;;;;;;;3.90;2.20;;;;;;;;;;741817;190;922705;-64
2023/07/31 01:12:03;;;;;;;4.10;2.80;;;;;;;;;;738488;190;922242;-58
2023/07/31 01:14:29;;;;;;;6.37;2.75;;;;;;;;;;736304;190;915621;-64
2023/07/31 01:16:55;;;;;;;9.20;3.17;;;;;;;;;;743247;190;817373;-58
2023/07/31 01:19:21;;;;;;;4.83;3.13;;;;;;;;;;737083;191;903019;-57
2023/07/31 01:21:48;;;;;;;5.30;2.60;;;;;;;;;;736235;190;919890;-65
2023/07/31 01:24:16;;;;;;;5.50;3.10;;;;;;;;;;736607;190;916018;-64
2023/07/31 01:26:42;;;;;;;6.13;3.17;;;;;;;;;;742467;190;917137;-58
2023/07/31 01:29:07;;;;;;;5.77;3.20;;;;;;;;;;737393;190;893163;-63
2023/07/31 01:31:33;;;;;;;5.10;2.73;;;;;;;;;;735401;190;920233;-58
2023/07/31 01:34:00;;;;;;;7.30;2.70;;;;;;;;;;743659;190;918782;-64
2023/07/31 01:36:26;;;;;;;7.03;3.00;;;;;;;;;;736980;190;915465;-57
2023/07/31 01:38:52;;;;;;;4.30;3.00;;;;;;;;;;737341;190;918217;-63
2023/07/31 01:41:18;;;;;;;4.60;3.00;;;;;;;;;;737354;190;916753;-63
2023/07/31 01:43:43;;;;;;;5.07;3.23;;;;;;;;;;745017;187;917201;-58
2023/07/31 01:46:09;;;;;;;8.00;2.73;;;;;;;;;;740853;189;880631;-63
2023/07/31 01:48:36;;;;;;;7.00;2.60;;;;;;;;;;740521;190;918624;-64
2023/07/31 01:51:01;;;;;;;5.10;3.07;;;;;;;;;;743286;190;919303;-57
2023/07/31 01:53:27;;;;;;;4.70;3.50;;;;;;;;;;738987;190;941731;-58
2023/07/31 01:55:53;;;;;;;8.30;2.73;;;;;;;;;;737557;190;1020771;-57
2023/07/31 01:58:18;;;;;;;5.80;3.20;;;;;;;;;;742684;190;917742;-57
2023/07/31 02:00:44;;;;;;;5.10;2.93;;;;;;;;;;738510;190;919112;-57
2023/07/31 02:03:10;;;;;;;6.30;3.10;;;;;;;;;;738007;190;918992;-62
2023/07/31 02:05:36;;;;;;;4.97;2.80;;;;;;;;;;742975;190;918996;-64
2023/07/31 02:08:02;;;;;;;5.93;3.73;;;;;;;;;;736830;190;922382;-57
2023/07/31 02:10:28;;;;;;;5.07;3.20;;;;;;;;;;738096;190;818910;-57
2023/07/31 02:12:53;;;;;;;11.30;3.53;;;;;;;;;;738447;190;918931;-57
2023/07/31 02:15:19;;;;;;;3.80;2.83;;;;;;;;;;744891;190;918673;-57
2023/07/31 02:17:45;;;;;;;4.23;3.27;;;;;;;;;;737594;190;918869;-62
2023/07/31 02:20:11;;;;;;;5.30;2.92;;;;;;;;;;737679;190;918842;-62
2023/07/31 02:22:37;;;;;;;4.73;3.17;;;;;;;;;;742740;190;814894;-57
2023/07/31 02:25:03;;;;;;;10.33;3.20;;;;;;;;;;737355;190;919948;-62
2023/07/31 02:27:29;;;;;;;6.47;3.50;;;;;;;;;;739521;190;912847;-62
2023/07/31 02:29:55;;;;;;;4.82;2.72;;;;;;;;;;741453;190;918642;-57
2023/07/31 02:32:21;;;;;;;9.00;2.93;;;;;;;;;;738168;190;908855;-63
2023/07/31 02:34:46;;;;;;;7.50;3.60;;;;;;;;;;738490;190;919539;-57
2023/07/31 02:37:12;;;;;;;5.93;3.10;;;;;;;;;;737025;190;919628;-57
2023/07/31 02:39:38;;;;;;;4.17;2.47;;;;;;;;;;741754;190;919118;-62
2023/07/31 02:42:04;;;;;;;6.30;2.93;;;;;;;;;;731433;190;918199;-62
2023/07/31 02:44:30;;;;;;;5.77;2.73;;;;;;;;;;737091;190;919557;-62
2023/07/31 02:46:56;;;;;;;9.63;3.20;;;;;;;;;;743071;190;819364;-57
2023/07/31 02:49:22;;;;;;;11.67;3.10;;;;;;;;;;737059;190;919468;-57
2023/07/31 02:51:48;;;;;;;6.07;3.67;;;;;;;;;;731331;190;940573;-62
2023/07/31 02:54:14;;;;;;;4.90;3.27;;;;;;;;;;742311;190;919087;-57
2023/07/31 02:56:39;;;;;;;6.13;2.60;;;;;;;;;;737807;190;918787;-62
2023/07/31 02:59:05;;;;;;;9.73;3.40;;;;;;;;;;737577;188;918806;-62
2023/07/31 03:01:31;;;;;;;4.37;3.27;;;;;;;;;;736909;190;816956;-57
2023/07/31 03:03:57;;;;;;;6.33;3.20;;;;;;;;;;740625;190;916847;-62
2023/07/31 03:06:23;;;;;;;7.18;3.33;;;;;;;;;;738907;190;919204;-62
2023/07/31 03:08:49;;;;;;;4.90;3.03;;;;;;;;;;740160;190;818157;-62
2023/07/31 03:11:14;;;;;;;5.90;3.53;;;;;;;;;;745724;190;907565;-57
2023/07/31 03:13:40;;;;;;;8.60;3.37;;;;;;;;;;739565;190;856445;-62
2023/07/31 03:16:06;;;;;;;6.37;3.57;;;;;;;;;;739106;190;920522;-62
2023/07/31 03:18:32;;;;;;;10.17;3.40;;;;;;;;;;736795;190;1616589;-57
2023/07/31 03:20:58;;;;;;;5.77;3.30;;;;;;;;;;735234;188;910022;-57
2023/07/31 03:23:25;;;;;;;4.60;2.87;;;;;;;;;;736679;190;909729;-64
2023/07/31 03:25:56;;;;;;;5.67;4.13;;;;;;;;;;741950;190;912465;-57
2023/07/31 03:28:21;;;;;;;6.73;3.40;;;;;;;;;;744464;190;760775;-57
2023/07/31 03:30:47;;;;;;;6.07;3.80;;;;;;;;;;738981;190;911324;-57
2023/07/31 03:33:13;;;;;;;12.70;3.23;;;;;;;;;;738185;190;886872;-62
2023/07/31 03:35:39;;;;;;;5.80;3.50;;;;;;;;;;741846;190;839076;-63
2023/07/31 03:38:05;;;;;;;9.63;2.80;;;;;;;;;;735839;190;917809;-63
2023/07/31 03:40:30;;;;;;;5.80;3.73;;;;;;;;;;735250;190;918474;-64
2023/07/31 03:42:56;;;;;;;6.20;3.27;;;;;;;;;;744202;190;814752;-57
2023/07/31 03:45:22;;;;;;;6.07;3.70;;;;;;;;;;735871;190;912669;-63
2023/07/31 03:47:48;;;;;;;5.27;3.33;;;;;;;;;;738510;190;888825;-63
2023/07/31 03:50:14;;;;;;;5.67;3.90;;;;;;;;;;737282;190;908739;-63
2023/07/31 03:52:40;;;;;;;6.03;3.67;;;;;;;;;;742175;190;918827;-64
2023/07/31 03:55:05;;;;;;;5.30;3.17;;;;;;;;;;735822;190;913474;-63
2023/07/31 03:57:32;;;;;;;5.27;3.43;;;;;;;;;;736811;190;917686;-63
2023/07/31 03:59:57;;;;;;;5.23;3.47;;;;;;;;;;741064;190;946983;-57
2023/07/31 04:02:23;;;;;;;5.23;2.97;;;;;;;;;;739096;189;918952;-64
2023/07/31 04:04:49;;;;;;;6.00;3.57;;;;;;;;;;737241;190;915743;-63
2023/07/31 04:07:15;;;;;;;5.70;3.55;;;;;;;;;;742763;190;865101;-57
2023/07/31 04:09:41;;;;;;;6.50;2.90;;;;;;;;;;738079;188;945451;-57
2023/07/31 04:12:07;;;;;;;6.53;3.50;;;;;;;;;;739490;190;918442;-57
2023/07/31 04:14:32;;;;;;;5.13;3.03;;;;;;;;;;738275;190;1021456;-63
2023/07/31 04:16:58;;;;;;;6.47;3.40;;;;;;;;;;746984;187;921607;-57
2023/07/31 04:19:24;;;;;;;7.07;2.97;;;;;;;;;;739339;190;881984;-57
2023/07/31 04:21:50;;;;;;;7.73;4.50;;;;;;;;;;738394;190;919196;-58
2023/07/31 04:24:22;;;;;;;6.63;3.80;;;;;;;;;;742928;190;929692;-63
2023/07/31 04:26:42;;;;;;;6.77;3.70;;;;;;;;;;736919;190;920887;-63
2023/07/31 04:29:08;;;;;;;5.97;3.40;;;;;;;;;;738260;190;928856;-57
2023/07/31 04:31:33;;;;;;;8.03;3.57;;;;;;;;;;742913;190;817865;-57
2023/07/31 04:33:59;;;;;;;5.40;3.50;;;;;;;;;;739885;190;820279;-57
2023/07/31 04:36:25;;;;;;;6.93;3.33;;;;;;;;;;738393;190;818147;-63
2023/07/31 04:38:52;;;;;;;9.10;3.10;;;;;;;;;;742814;189;815228;-57
2023/07/31 04:41:18;;;;;;;5.60;2.93;;;;;;;;;;745529;188;917896;-63
2023/07/31 04:43:43;;;;;;;4.30;3.20;;;;;;;;;;735322;190;919394;-57
2023/07/31 04:46:09;;;;;;;4.67;3.07;;;;;;;;;;739746;190;913928;-64
2023/07/31 04:48:35;;;;;;;13.80;3.93;;;;;;;;;;741109;190;916933;-57
2023/07/31 04:51:01;;;;;;;4.60;2.83;;;;;;;;;;739233;190;816827;-57
2023/07/31 04:53:27;;;;;;;5.55;3.12;;;;;;;;;;737274;188;918084;-63
2023/07/31 04:55:53;;;;;;;8.57;4.03;;;;;;;;;;743024;190;919116;-57
2023/07/31 04:58:18;;;;;;;10.97;3.47;;;;;;;;;;737878;190;919746;-57
2023/07/31 05:00:44;;;;;;;6.27;3.70;;;;;;;;;;737254;190;840923;-63
2023/07/31 05:03:11;;;;;;;5.07;3.03;;;;;;;;;;742384;190;917336;-63
2023/07/31 05:05:36;;;;;;;5.37;2.80;;;;;;;;;;737817;190;918399;-63
2023/07/31 05:08:02;;;;;;;6.30;2.60;;;;;;;;;;737403;190;918438;-63
2023/07/31 05:10:28;;;;;;;6.43;3.30;;;;;;;;;;737782;190;919121;-63
2023/07/31 05:12:53;;;;;;;4.97;3.03;;;;;;;;;;741548;190;918783;-63
2023/07/31 05:15:19;;;;;;;7.13;3.20;;;;;;;;;;727251;190;920709;-57
2023/07/31 05:17:45;;;;;;;9.63;3.57;;;;;;;;;;738374;190;918671;-57
2023/07/31 05:20:11;;;;;;;10.53;3.60;;;;;;;;;;742189;190;918790;-57
2023/07/31 05:22:37;;;;;;;17.30;4.43;;;;;;;;;;740384;189;918621;-63
2023/07/31 05:25:03;;;;;;;6.30;3.33;;;;;;;;;;739219;190;919583;-57
2023/07/31 05:27:29;;;;;;;7.87;3.60;;;;;;;;;;742898;189;818588;-57
2023/07/31 05:29:55;;;;;;;4.30;2.93;;;;;;;;;;740676;190;817026;-57
2023/07/31 05:32:21;;;;;;;8.90;3.50;;;;;;;;;;734868;190;892315;-63
2023/07/31 05:34:47;;;;;;;6.40;3.10;;;;;;;;;;738337;190;918193;-57
2023/07/31 05:37:12;;;;;;;4.70;2.60;;;;;;;;;;735449;190;918487;-57
2023/07/31 05:39:38;;;;;;;6.20;3.37;;;;;;;;;;738095;190;856614;-63
2023/07/31 05:42:05;;;;;;;5.60;3.20;;;;;;;;;;738218;190;919438;-57
2023/07/31 05:44:30;;;;;;;6.67;3.13;;;;;;;;;;743216;190;914101;-57
2023/07/31 05:46:56;;;;;;;5.23;2.90;;;;;;;;;;738736;190;918996;-57
2023/07/31 05:49:22;;;;;;;4.77;3.40;;;;;;;;;;739304;190;919987;-57
2023/07/31 05:51:48;;;;;;;6.83;3.40;;;;;;;;;;743040;189;918963;-57
2023/07/31 05:54:14;;;;;;;10.37;4.13;;;;;;;;;;737103;190;918871;-57
2023/07/31 05:56:40;;;;;;;5.43;3.40;;;;;;;;;;737387;190;914156;-63
2023/07/31 05:59:06;;;;;;;6.90;3.95;;;;;;;;;;736786;190;918631;-63
2023/07/31 06:01:31;;;;;;;7.70;3.13;;;;;;;;;;734580;190;915106;-63
2023/07/31 06:03:57;;;;;;;5.00;3.30;;;;;;;;;;738133;190;921019;-63
2023/07/31 06:06:23;;;;;;;5.97;3.70;;;;;;;;;;738619;190;820227;-63
2023/07/31 06:08:49;;;;;;;4.60;3.00;;;;;;;;;;742863;190;809271;-64
2023/07/31 06:11:15;;;;;;;5.90;3.57;;;;;;;;;;734551;190;919402;-63
2023/07/31 06:13:40;;;;;;;4.85;3.70;;;;;;;;;;739532;190;813429;-57
2023/07/31 06:16:06;;;;;;;5.70;3.03;;;;;;;;;;740406;190;914205;-64
2023/07/31 06:18:32;;;;;;;7.30;3.27;;;;;;;;;;737680;190;916331;-58
2023/07/31 06:20:58;;;;;;;10.90;3.20;;;;;;;;;;738252;190;919933;-64
2023/07/31 06:23:24;;;;;;;6.27;3.60;;;;;;;;;;742394;190;919274;-57
2023/07/31 06:25:50;;;;;;;4.87;3.90;;;;;;;;;;736372;190;1010372;-57
2023/07/31 06:28:16;;;;;;;7.10;3.80;;;;;;;;;;732616;191;915611;-64
2023/07/31 06:30:41;;;;;;;4.90;3.10;;;;;;;;;;735692;190;913760;-64
2023/07/31 06:33:08;;;;;;;6.28;3.10;;;;;;;;;;743760;188;916174;-57
2023/07/31 06:35:33;;;;;;;6.70;3.37;;;;;;;;;;740057;188;891573;-58
2023/07/31 06:37:59;;;;;;;5.00;2.97;;;;;;;;;;739659;190;920217;-64
2023/07/31 06:40:25;;;;;;;8.60;3.37;;;;;;;;;;743719;190;911140;-57
2023/07/31 06:42:51;;;;;;;6.83;3.50;;;;;;;;;;739288;190;909295;-58
2023/07/31 06:45:17;;;;;;;5.03;3.50;;;;;;;;;;737645;190;918685;-57
2023/07/31 06:47:43;;;;;;;5.70;3.30;;;;;;;;;;744518;190;804155;-64
2023/07/31 06:50:08;;;;;;;6.20;3.10;;;;;;;;;;737592;190;917291;-64
2023/07/31 06:52:34;;;;;;;10.23;3.23;;;;;;;;;;736780;190;918990;-65
2023/07/31 06:55:00;;;;;;;5.43;3.53;;;;;;;;;;736979;190;914352;-64
2023/07/31 06:57:26;;;;;;;5.20;3.50;;;;;;;;;;736137;190;910473;-64
2023/07/31 06:59:52;;;;;;;9.53;3.40;;;;;;;;;;737154;190;902321;-58
2023/07/31 07:02:18;;;;;;;4.25;3.17;;;;;;;;;;739227;190;815279;-58
2023/07/31 07:04:43;;;;;;;7.13;3.27;;;;;;;;;;742191;190;922480;-57
2023/07/31 07:07:09;;;;;;;8.17;3.50;;;;;;;;;;737659;190;918252;-64
2023/07/31 07:09:35;;;;;;;4.97;2.77;;;;;;;;;;737462;190;909108;-58
2023/07/31 07:12:01;;;;;;;8.37;3.70;;;;;;;;;;744470;190;905849;-64
2023/07/31 07:14:27;;;;;;;5.00;3.03;;;;;;;;;;737331;190;917875;-58
2023/07/31 07:16:53;;;;;;;4.67;3.10;;;;;;;;;;733299;191;919333;-64
2023/07/31 07:19:18;;;;;;;5.33;3.10;;;;;;;;;;735136;192;913623;-64
2023/07/31 07:21:44;;;;;;;6.73;3.40;;;;;;;;;;731316;192;920189;-64
2023/07/31 07:24:10;;;;;;;8.00;3.57;;;;;;;;;;736560;190;919881;-65
2023/07/31 07:26:36;;;;;;;4.63;3.70;;;;;;;;;;737395;190;912247;-64
2023/07/31 07:29:02;;;;;;;4.57;2.80;;;;;;;;;;742064;190;913816;-58
2023/07/31 07:31:28;;;;;;;6.50;2.83;;;;;;;;;;737217;190;821570;-58
2023/07/31 07:33:54;;;;;;;6.77;3.10;;;;;;;;;;736694;190;863387;-57
2023/07/31 07:36:20;;;;;;;5.87;3.27;;;;;;;;;;742802;190;921870;-64
2023/07/31 07:38:45;;;;;;;8.50;3.00;;;;;;;;;;735828;189;917578;-58
2023/07/31 07:41:11;;;;;;;7.10;3.70;;;;;;;;;;738355;189;917668;-66
2023/07/31 07:43:37;;;;;;;5.20;2.80;;;;;;;;;;740471;189;850516;-58
2023/07/31 07:46:03;;;;;;;6.90;3.20;;;;;;;;;;739499;189;918520;-65
2023/07/31 07:48:29;;;;;;;5.30;3.60;;;;;;;;;;736963;190;915828;-58
2023/07/31 07:50:55;;;;;;;6.77;3.40;;;;;;;;;;739290;190;921029;-64
2023/07/31 07:53:20;;;;;;;8.00;3.73;;;;;;;;;;742132;190;918576;-58
2023/07/31 07:55:46;;;;;;;7.07;3.50;;;;;;;;;;737222;190;919353;-65
2023/07/31 07:58:12;;;;;;;8.50;3.67;;;;;;;;;;737230;190;917486;-59
2023/07/31 08:00:38;;;;;;;7.37;3.30;;;;;;;;;;744164;190;919559;-66
2023/07/31 08:03:04;;;;;;;9.27;3.37;;;;;;;;;;737214;190;920619;-66
2023/07/31 08:05:33;;;;;;;5.93;3.10;;;;;;;;;;734372;190;880886;-67
2023/07/31 08:07:56;;;;;;;5.90;3.47;;;;;;;;;;742309;190;921159;-58
2023/07/31 08:10:21;;;;;;;6.80;3.37;;;;;;;;;;738515;190;919925;-66
2023/07/31 08:12:47;;;;;;;6.00;3.20;;;;;;;;;;734839;190;928399;-65
2023/07/31 08:15:13;;;;;;;5.97;2.80;;;;;;;;;;736691;190;923599;-59
2023/07/31 08:17:39;;;;;;;7.37;3.40;;;;;;;;;;744924;188;916223;-66
2023/07/31 08:20:05;;;;;;;9.93;3.10;;;;;;;;;;738649;190;918394;-58
2023/07/31 08:22:31;;;;;;;4.50;2.70;;;;;;;;;;737202;190;910539;-59
2023/07/31 08:24:57;;;;;;;6.40;2.70;;;;;;;;;;742687;189;919575;-58
2023/07/31 08:27:23;;;;;;;7.67;3.10;;;;;;;;;;738103;190;919646;-65
2023/07/31 08:29:49;;;;;;;5.63;2.97;;;;;;;;;;738800;190;717183;-59
2023/07/31 08:32:15;;;;;;;4.60;2.50;;;;;;;;;;740763;190;919542;-66
2023/07/31 08:34:41;;;;;;;10.80;3.27;;;;;;;;;;737691;190;920389;-65
2023/07/31 08:37:06;;;;;;;8.23;4.87;;;;;;;;;;738675;190;902627;-66
2023/07/31 08:39:32;;;;;;;6.00;3.03;;;;;;;;;;741805;190;916411;-58
2023/07/31 08:41:58;;;;;;;5.00;2.57;;;;;;;;;;731194;190;943182;-59
2023/07/31 08:44:24;;;;;;;6.77;3.37;;;;;;;;;;738938;190;866061;-59
2023/07/31 08:46:50;;;;;;;4.67;2.80;;;;;;;;;;737675;190;910790;-64
2023/07/31 08:49:16;;;;;;;6.10;2.57;;;;;;;;;;741017;190;862456;-65
2023/07/31 08:51:41;;;;;;;5.13;2.53;;;;;;;;;;734865;190;918842;-65
2023/07/31 08:54:07;;;;;;;8.33;2.87;;;;;;;;;;736904;190;818591;-65
2023/07/31 08:56:33;;;;;;;6.00;3.10;;;;;;;;;;742097;188;916083;-58
2023/07/31 08:58:59;;;;;;;6.40;2.97;;;;;;;;;;738264;190;920007;-65
2023/07/31 09:01:25;;;;;;;8.20;2.80;;;;;;;;;;739046;190;919380;-66
2023/07/31 09:03:51;;;;;;;6.47;2.67;;;;;;;;;;743146;189;918926;-65
2023/07/31 09:06:16;;;;;;;6.97;2.40;;;;;;;;;;736959;190;919207;-59
2023/07/31 09:08:42;;;;;;;6.43;2.20;;;;;;;;;;737928;190;913590;-59
2023/07/31 09:11:08;;;;;;;8.80;2.87;;;;;;;;;;738498;190;918673;-64
2023/07/31 09:13:34;;;;;;;10.60;3.20;;;;;;;;;;738818;190;917898;-59
2023/07/31 09:16:00;;;;;;;6.73;3.07;;;;;;;;;;736999;190;916115;-59
2023/07/31 09:18:26;;;;;;;4.30;2.00;;;;;;;;;;738640;190;918334;-59
2023/07/31 09:20:57;;;;;;;5.80;2.40;;;;;;;;;;745614;190;625286;-67
2023/07/31 09:23:23;;;;;;;3.87;2.23;;;;;;;;;;741640;190;821506;-67
2023/07/31 09:25:49;;;;;;;5.10;2.40;;;;;;;;;;742318;190;637309;-65
2023/07/31 09:28:15;;;;;;;4.50;2.20;;;;;;;;;;738252;191;634797;-59
2023/07/31 09:30:44;;;;;;;6.13;2.30;;;;;;;;;;735190;190;913253;-65
2023/07/31 09:33:09;;;;;;;7.45;2.55;;;;;;;;;;732144;192;919146;-65
2023/07/31 09:35:37;;;;;;;6.37;2.33;;;;;;;;;;731323;192;919980;-65
2023/07/31 09:38:01;;;;;;;5.67;2.20;;;;;;;;;;742655;190;916381;-58
2023/07/31 09:40:27;;;;;;;6.60;2.53;;;;;;;;;;738179;190;918866;-58
2023/07/31 09:42:53;;;;;;;8.10;2.47;;;;;;;;;;736930;190;918578;-65
2023/07/31 09:45:19;;;;;;;5.32;2.22;;;;;;;;;;741975;190;918411;-66
2023/07/31 09:47:47;;;;;;;5.10;2.00;;;;;;;;;;737207;190;873838;-65
2023/07/31 09:50:12;;;;;;;5.43;2.43;;;;;;;;;;736026;190;911107;-58
2023/07/31 09:52:38;;;;;;;9.43;3.23;;;;;;;;;;738183;190;911296;-59
2023/07/31 09:55:04;;;;;;;6.73;2.20;;;;;;;;;;741908;190;909449;-65
2023/07/31 09:57:30;;;;;;;5.63;2.30;;;;;;;;;;736703;190;921583;-70
2023/07/31 09:59:56;;;;;;;5.47;2.20;;;;;;;;;;736558;190;918213;-58
2023/07/31 10:02:21;;;;;;;4.70;2.77;;;;;;;;;;741783;190;892980;-59
2023/07/31 10:04:47;;;;;;;8.03;3.20;;;;;;;;;;736872;190;919660;-60
2023/07/31 10:07:13;;;;;;;4.90;2.50;;;;;;;;;;737508;188;918106;-58
2023/07/31 10:09:39;;;;;;;5.50;2.73;;;;;;;;;;744840;190;927499;-58
2023/07/31 10:12:06;;;;;;;6.47;2.73;;;;;;;;;;736040;190;902394;-65
2023/07/31 10:14:31;;;;;;;6.20;2.37;;;;;;;;;;736568;190;929453;-59
2023/07/31 10:16:58;;;;;;;7.75;2.55;;;;;;;;;;740605;190;816695;-64
2023/07/31 10:19:23;;;;;;;5.60;2.37;;;;;;;;;;740398;190;816800;-58
2023/07/31 10:21:49;;;;;;;7.17;2.40;;;;;;;;;;737681;190;919320;-58
2023/07/31 10:24:15;;;;;;;4.60;2.63;;;;;;;;;;738853;190;921852;-66
2023/07/31 10:26:41;;;;;;;7.23;2.43;;;;;;;;;;742038;190;922354;-59
2023/07/31 10:29:07;;;;;;;7.57;2.50;;;;;;;;;;738135;190;918494;-58
2023/07/31 10:31:33;;;;;;;4.83;2.17;;;;;;;;;;738470;190;919398;-66
2023/07/31 10:34:00;;;;;;;6.47;2.60;;;;;;;;;;742644;190;916044;-65
2023/07/31 10:36:26;;;;;;;6.13;2.03;;;;;;;;;;738121;190;899440;-65
2023/07/31 10:38:51;;;;;;;3.83;1.90;;;;;;;;;;737815;190;931944;-58
2023/07/31 10:41:18;;;;;;;8.18;2.45;;;;;;;;;;741064;190;919297;-64
2023/07/31 10:43:44;;;;;;;3.60;1.70;;;;;;;;;;745027;188;919847;-66
2023/07/31 10:46:12;;;;;;;6.10;2.23;;;;;;;;;;733653;191;919354;-58
2023/07/31 10:48:40;;;;;;;4.30;2.30;;;;;;;;;;721454;194;917689;-65
2023/07/31 10:51:07;;;;;;;5.43;2.43;;;;;;;;;;736224;192;914729;-65
2023/07/31 10:53:33;;;;;;;5.40;2.30;;;;;;;;;;734507;192;820619;-59
2023/07/31 10:55:59;;;;;;;4.37;2.17;;;;;;;;;;736288;190;919175;-66
2023/07/31 10:58:24;;;;;;;6.00;2.47;;;;;;;;;;741180;190;918504;-64
2023/07/31 11:00:50;;;;;;;7.03;2.00;;;;;;;;;;736466;190;919469;-60
2023/07/31 11:03:16;;;;;;;6.50;1.80;;;;;;;;;;736385;190;919233;-59
2023/07/31 11:05:44;;;;;;;4.40;2.43;;;;;;;;;;737569;188;920943;-65
2023/07/31 11:08:10;;;;;;;4.40;2.07;;;;;;;;;;741908;190;916871;-66
2023/07/31 11:10:36;;;;;;;5.60;1.93;;;;;;;;;;736949;190;819141;-59
2023/07/31 11:13:02;;;;;;;8.07;2.43;;;;;;;;;;738109;190;921761;-66
2023/07/31 11:15:28;;;;;;;4.40;2.07;;;;;;;;;;742949;190;911223;-65
2023/07/31 11:17:54;;;;;;;8.83;3.00;;;;;;;;;;736598;190;916943;-66
2023/07/31 11:20:19;;;;;;;4.53;2.20;;;;;;;;;;741400;188;907233;-58
2023/07/31 11:22:45;;;;;;;4.82;2.05;;;;;;;;;;742392;190;828554;-60
2023/07/31 11:25:11;;;;;;;3.87;1.83;;;;;;;;;;738393;190;913078;-66
2023/07/31 11:27:40;;;;;;;5.60;2.37;;;;;;;;;;739808;190;919433;-59
2023/07/31 11:30:05;;;;;;;7.23;2.30;;;;;;;;;;739682;190;820055;-59
2023/07/31 11:32:31;;;;;;;3.47;2.10;;;;;;;;;;741613;190;919137;-58
2023/07/31 11:34:57;;;;;;;4.13;1.93;;;;;;;;;;736984;190;923003;-58
2023/07/31 11:37:23;;;;;;;4.17;2.07;;;;;;;;;;739744;190;919444;-58
2023/07/31 11:39:54;;;;;;;3.90;2.20;;;;;;;;;;742358;190;918703;-58
2023/07/31 11:42:20;;;;;;;5.67;1.93;;;;;;;;;;742472;188;913844;-65
2023/07/31 11:44:47;;;;;;;2.80;1.67;;;;;;;;;;738188;190;915262;-66
2023/07/31 11:47:12;;;;;;;7.70;2.77;;;;;;;;;;736719;190;919401;-58
2023/07/31 11:49:38;;;;;;;7.67;2.53;;;;;;;;;;743215;190;918775;-66
2023/07/31 11:52:04;;;;;;;6.43;2.62;;;;;;;;;;735965;190;921028;-58
2023/07/31 11:54:30;;;;;;;4.63;2.10;;;;;;;;;;738675;190;831704;-59
2023/07/31 11:56:57;;;;;;;5.27;2.20;;;;;;;;;;741927;190;849373;-58
2023/07/31 11:59:21;;;;;;;3.33;2.17;;;;;;;;;;732503;190;813466;-65
2023/07/31 12:01:50;;;;;;;4.63;2.30;;;;;;;;;;735973;190;914526;-59
2023/07/31 12:04:14;;;;;;;4.05;2.10;;;;;;;;;;741824;190;917699;-58
2023/07/31 12:06:39;;;;;;;6.03;2.47;;;;;;;;;;745269;187;815520;-66
2023/07/31 12:09:05;;;;;;;8.20;1.83;;;;;;;;;;730401;191;925723;-58
2023/07/31 12:11:31;;;;;;;4.90;1.73;;;;;;;;;;737079;190;916745;-65
2023/07/31 12:13:57;;;;;;;4.40;1.90;;;;;;;;;;739816;190;919626;-65
2023/07/31 12:16:23;;;;;;;8.57;2.10;;;;;;;;;;737419;190;916771;-65
2023/07/31 12:18:49;;;;;;;6.13;2.37;;;;;;;;;;738006;190;816688;-65
2023/07/31 12:21:15;;;;;;;5.13;2.13;;;;;;;;;;742868;190;818299;-65
2023/07/31 12:23:42;;;;;;;5.03;2.27;;;;;;;;;;739652;190;918701;-64
2023/07/31 12:26:07;;;;;;;4.70;2.13;;;;;;;;;;736551;190;919560;-65
2023/07/31 12:28:34;;;;;;;8.30;1.97;;;;;;;;;;740592;190;918484;-59
2023/07/31 12:31:00;;;;;;;5.10;1.80;;;;;;;;;;746871;188;919035;-65
2023/07/31 12:33:34;;;;;;;5.10;1.93;;;;;;;;;;738990;190;919881;-58
2023/07/31 12:36:00;;;;;;;7.00;2.33;;;;;;;;;;738671;190;1019608;-58
2023/07/31 12:38:25;;;;;;;3.67;2.10;;;;;;;;;;743075;190;915362;-58
2023/07/31 12:40:51;;;;;;;3.90;2.17;;;;;;;;;;737827;190;969909;-59
2023/07/31 12:43:17;;;;;;;3.83;2.10;;;;;;;;;;737992;190;920463;-59
2023/07/31 12:45:43;;;;;;;4.70;1.80;;;;;;;;;;737880;190;920035;-65
2023/07/31 12:48:09;;;;;;;3.27;1.83;;;;;;;;;;744945;187;920227;-58
2023/07/31 12:50:36;;;;;;;6.20;1.83;;;;;;;;;;736570;190;918521;-65
2023/07/31 12:53:00;;;;;;;3.60;1.83;;;;;;;;;;737951;190;822808;-65
2023/07/31 12:55:26;;;;;;;3.00;1.70;;;;;;;;;;742948;190;918518;-65
2023/07/31 12:57:52;;;;;;;4.03;1.70;;;;;;;;;;738524;190;836987;-65
2023/07/31 13:00:18;;;;;;;7.20;2.00;;;;;;;;;;737789;190;908824;-58
2023/07/31 13:02:44;;;;;;;4.33;1.63;;;;;;;;;;742820;190;842514;-64
2023/07/31 13:05:10;;;;;;;7.30;2.00;;;;;;;;;;737616;190;913901;-65
2023/07/31 13:07:36;;;;;;;4.73;1.73;;;;;;;;;;738385;188;914318;-58
2023/07/31 13:10:01;;;;;;;4.90;1.70;;;;;;;;;;742924;190;922983;-58
2023/07/31 13:12:27;;;;;;;3.93;1.63;;;;;;;;;;733583;190;1532580;-59
2023/07/31 13:14:53;;;;;;;5.23;1.93;;;;;;;;;;736718;190;918928;-65
2023/07/31 13:17:19;;;;;;;3.73;1.43;;;;;;;;;;737382;190;915430;-65
2023/07/31 13:19:45;;;;;;;4.40;1.97;;;;;;;;;;740531;190;919038;-65
2023/07/31 13:22:11;;;;;;;4.53;2.00;;;;;;;;;;737751;189;917073;-58
2023/07/31 13:24:36;;;;;;;5.00;2.07;;;;;;;;;;740164;190;917217;-58
2023/07/31 13:27:03;;;;;;;5.03;1.80;;;;;;;;;;742011;190;918908;-65
2023/07/31 13:29:29;;;;;;;3.07;1.60;;;;;;;;;;738068;190;915438;-65
2023/07/31 13:31:54;;;;;;;10.23;2.23;;;;;;;;;;736288;190;913503;-64
2023/07/31 13:34:20;;;;;;;6.50;1.90;;;;;;;;;;742159;190;886325;-58
2023/07/31 13:36:46;;;;;;;4.17;1.93;;;;;;;;;;738441;190;869212;-65
2023/07/31 13:39:12;;;;;;;4.40;2.20;;;;;;;;;;740248;190;816036;-65
2023/07/31 13:41:38;;;;;;;4.70;2.27;;;;;;;;;;737121;188;923016;-64
2023/07/31 13:44:04;;;;;;;2.90;1.70;;;;;;;;;;737748;190;932355;-66
2023/07/31 13:46:29;;;;;;;6.53;2.30;;;;;;;;;;738907;190;918576;-65
2023/07/31 13:48:55;;;;;;;2.93;1.43;;;;;;;;;;737595;190;914578;-58
2023/07/31 13:51:21;;;;;;;7.73;3.37;;;;;;;;;;742095;190;919622;-58
2023/07/31 13:53:47;;;;;;;4.67;2.20;;;;;;;;;;739013;190;922009;-58
2023/07/31 13:56:13;;;;;;;6.20;2.13;;;;;;;;;;736922;190;921195;-64
2023/07/31 13:58:39;;;;;;;4.27;2.43;;;;;;;;;;743290;190;919152;-64
2023/07/31 14:01:04;;;;;;;5.63;2.30;;;;;;;;;;737853;190;920885;-64
2023/07/31 14:03:30;;;;;;;2.80;1.60;;;;;;;;;;735720;190;921052;-64
2023/07/31 14:05:56;;;;;;;3.43;1.93;;;;;;;;;;739709;190;901361;-63
2023/07/31 14:08:22;;;;;;;3.63;2.13;;;;;;;;;;746299;187;818883;-58
2023/07/31 14:10:48;;;;;;;3.80;1.40;;;;;;;;;;738601;190;921357;-65
2023/07/31 14:13:14;;;;;;;3.63;1.93;;;;;;;;;;736831;190;914859;-64
2023/07/31 14:15:40;;;;;;;3.90;1.60;;;;;;;;;;743817;190;939011;-57
2023/07/31 14:18:06;;;;;;;5.63;2.20;;;;;;;;;;738299;190;819008;-57
2023/07/31 14:20:31;;;;;;;7.10;2.27;;;;;;;;;;737733;190;820326;-64